Agate Bay, California
Current Conditions -  °F | °C
As of 7:45 AM on Monday 24 Nov 2014 (Local Time) from KTRK Reporting Station
Light Fog Light Fog  
Wind Chill: 18°   Ceiling: 13000
Heat Index: 18°   Visibility: 4mi
Dew Point: 16°   Wind: 0mph
Humidity: 93%   Direction: NA
Pressure: 30.46"   Gusts: NA
Location:  39.2392°N, 120.102°W
Report Text: KTRK 241545Z 00000KT 4SM BCFG SCT001 SCT006 BKN130 M08/M09 A3046 RMK NOSPECI VIS W 1
Loading
Personal Weather Stations






























Interactive Weather Map New forecast layout! Learn more

10-Day Weather Forecast

Advertisements
Track Severe Weather on mobile